Аэропорт: Игарка. Игарка

ICAO: UOII

METAR:
2013/07/19 07:30
UOII 190730Z 17003MPS CAVOK 29/11 Q1014 NOSIG RMK QFE758 12////60
METAR:
2013/01/10 06:12
TAF UOII 100500Z 1006/1018 18005MPS 4000 -SN BKN015 OVC100 650150 
      TEMPO 1006/1018 2000 SN BR VV007